Flight Track Log - Related Links

Times and Time Zones

All times are in EDT time to prevent confusion due to time zone crossing. See the EJA361 flight status page for this flight to view local times or setup timezone preferences in your user account.

Time Position Orientation Groundspeed Altitude Reporting Facility
EDT Latitude Longitude Course Direction KTS MPH feet Rate Location/Type
Mon 01:05:13 PM 36.6000 -121.7333 76° East 247 284 4,800  Level Northern Cal TRACON
Mon 01:06:13 PM 36.6167 -121.6500 76° East 288 331 8,100 2,100 Climbing Northern Cal TRACON
Mon 01:07:13 PM 36.6333 -121.5333 80° East 307 353 9,000 550 Climbing Northern Cal TRACON
Mon 01:08:13 PM 36.6333 -121.4333 90° East 297 342 9,200 1,500 Climbing Northern Cal TRACON
Mon 01:09:13 PM 36.6500 -121.3333 78° East 323 372 12,000 2,773 Climbing Northern Cal TRACON
Mon 01:10:25 PM 36.6653 -121.2019 82° East 319 367 15,300 2,776 Climbing Oakland Center
Mon 01:11:27 PM 36.6794 -121.0853 81° East 333 383 18,200 1,854 Climbing Oakland Center
Mon 01:12:28 PM 36.6939 -120.9631 82° East 347 399 19,100 1,525 Climbing Oakland Center
Mon 01:13:29 PM 36.7100 -120.8236 82° East 386 444 21,300 2,244 Climbing Oakland Center
Mon 01:14:31 PM 36.7683 -120.7050 58° Northeast 404 465 23,700 2,439 Climbing Oakland Center
Mon 01:15:32 PM 36.8483 -120.5903 49° Northeast 399 459 26,300 2,244 Climbing Oakland Center
Mon 01:16:34 PM 36.9242 -120.4825 49° Northeast 409 471 28,300 1,790 Climbing Oakland Center
Mon 01:17:36 PM 37.0000 -120.3736 49° Northeast 413 475 30,000 1,574 Climbing Oakland Center
Mon 01:18:36 PM 37.0783 -120.2589 49° Northeast 429 494 31,500 1,426 Climbing Oakland Center
Mon 01:19:38 PM 37.1567 -120.1461 49° Northeast 431 496 32,900 1,268 Climbing Oakland Center
Mon 01:20:39 PM 37.2367 -120.0289 49° Northeast 439 505 34,100 1,171 Climbing Oakland Center
Mon 01:21:41 PM 37.3344 -119.8858 49° Northeast 449 517 35,300 1,220 Climbing Oakland Center
Mon 01:22:42 PM 37.4175 -119.7664 49° Northeast 453 521 36,600 1,180 Climbing Oakland Center
Mon 01:23:43 PM 37.4986 -119.6456 50° Northeast 452 520 37,700 1,220 Climbing Oakland Center
Mon 01:24:45 PM 37.5789 -119.5264 50° Northeast 449 517 39,100 1,171 Climbing Oakland Center
Mon 01:25:46 PM 37.6572 -119.4114 49° Northeast 437 503 40,100 829 Climbing Oakland Center
Mon 01:26:48 PM 37.7347 -119.2958 50° Northeast 431 496 40,800 439 Climbing Oakland Center
Mon 01:27:49 PM 37.8119 -119.1806 50° Northeast 432 497 41,000 98 Climbing Oakland Center
Mon 01:28:51 PM 37.9022 -119.0439 50° Northeast 444 511 41,000  Level Oakland Center
Mon 01:29:52 PM 37.9564 -118.8989 65° Northeast 455 524 41,000  Level Oakland Center
Mon 01:30:54 PM 37.9981 -118.7464 71° East 457 526 41,000  Level Oakland Center
Mon 01:31:55 PM 38.0406 -118.5925 71° East 461 531 41,000  Level Oakland Center
Mon 01:32:56 PM 38.0833 -118.4375 71° East 464 534 41,000  Level Oakland Center
Mon 01:33:58 PM 38.1242 -118.2825 71° East 464 534 41,000  Level Oakland Center
Mon 01:34:59 PM 38.1728 -118.1039 71° East 460 529 41,000  Level Oakland Center
Mon 01:36:01 PM 38.2158 -117.9456 71° East 456 525 41,000  Level Oakland Center
Mon 01:37:02 PM 38.2561 -117.7944 71° East 452 520 41,000  Level Oakland Center
Mon 01:38:04 PM 38.2969 -117.6408 71° East 454 522 41,000  Level Oakland Center
Mon 01:38:58 PM 38.3292 -117.5178 72° East 455 524 41,000  Level Salt Lake Center
Mon 01:40:07 PM 38.3778 -117.3306 72° East 456 525 41,000  Level Oakland Center
Mon 01:41:02 PM 38.4089 -117.2056 72° East 456 525 41,000  Level Salt Lake Center
Mon 01:42:04 PM 38.4467 -117.0494 73° East 455 524 41,000  Level Salt Lake Center
Mon 01:43:06 PM 38.4911 -116.8622 73° East 456 525 41,000  Level Salt Lake Center
Mon 01:44:08 PM 38.5294 -116.7061 73° East 458 527 41,000  Level Salt Lake Center
Mon 01:45:10 PM 38.5658 -116.5489 73° East 460 529 41,000  Level Salt Lake Center
Mon 01:46:12 PM 38.6033 -116.3925 73° East 461 531 41,000  Level Salt Lake Center
Mon 01:47:14 PM 38.6408 -116.2353 73° East 460 529 41,000  Level Salt Lake Center
Mon 01:48:16 PM 38.6772 -116.0789 73° East 461 531 41,000  Level Salt Lake Center
Mon 01:49:18 PM 38.7144 -115.9211 73° East 462 532 41,000  Level Salt Lake Center
Mon 01:50:20 PM 38.7578 -115.7325 74° East 460 529 41,000  Level Salt Lake Center
Mon 01:51:22 PM 38.7947 -115.5736 73° East 465 535 41,000  Level Salt Lake Center
Mon 01:52:24 PM 38.8306 -115.4147 74° East 465 535 41,000  Level Salt Lake Center
Mon 01:53:26 PM 38.8644 -115.2617 74° East 463 533 41,000  Level Salt Lake Center
Mon 01:54:28 PM 38.9028 -115.0994 73° East 469 540 41,000  Level Salt Lake Center
Mon 01:55:30 PM 38.9386 -114.9394 74° East 469 540 41,000  Level Salt Lake Center
Mon 01:56:32 PM 38.9808 -114.7461 74° East 468 539 41,000  Level Salt Lake Center
Mon 01:57:34 PM 39.0172 -114.5847 74° East 471 542 41,000  Level Salt Lake Center
Mon 01:58:36 PM 39.0528 -114.4214 74° East 473 544 41,000  Level Salt Lake Center
Mon 01:59:39 PM 39.0878 -114.2569 75° East 476 548 41,000  Level Salt Lake Center
Mon 02:00:41 PM 39.1225 -114.0939 75° East 474 545 41,000  Level Salt Lake Center
Mon 02:01:43 PM 39.1594 -113.9286 74° East 479 551 41,000  Level Salt Lake Center
Mon 02:02:45 PM 39.2000 -113.7308 75° East 476 548 41,000  Level Salt Lake Center
Mon 02:03:47 PM 39.2356 -113.5658 74° East 477 549 41,000  Level Salt Lake Center
Mon 02:04:49 PM 39.2689 -113.4014 75° East 476 548 41,000  Level Salt Lake Center
Mon 02:05:51 PM 39.3033 -113.2375 75° East 474 545 41,000  Level Salt Lake Center
Mon 02:06:53 PM 39.3400 -113.0725 74° East 476 548 41,000  Level Salt Lake Center
Mon 02:07:55 PM 39.3775 -112.9058 74° East 480 552 41,000  Level Salt Lake Center
Mon 02:08:57 PM 39.4206 -112.7081 74° East 477 549 41,000  Level Salt Lake Center
Mon 02:10:00 PM 39.4559 -112.5397 75° East  Level FlightAware Approximate
Mon 02:11:01 PM 39.4961 -112.3678 75° East 482 555 41,000  Level Salt Lake Center
Mon 02:12:03 PM 39.5308 -112.2006 75° East 484 557 41,000  Level Salt Lake Center
Mon 02:13:05 PM 39.5661 -112.0344 75° East 481 554 41,000  Level Salt Lake Center
Mon 02:14:07 PM 39.6014 -111.8664 75° East 485 558 41,000  Level Salt Lake Center
Mon 02:15:09 PM 39.6361 -111.6981 75° East 486 559 41,000  Level Salt Lake Center
Mon 02:16:11 PM 39.6783 -111.4967 75° East 486 559 41,000  Level Salt Lake Center
Mon 02:17:13 PM 39.7133 -111.3269 75° East 488 562 41,000  Level Salt Lake Center
Mon 02:18:15 PM 39.7511 -111.1500 74° East 481 554 41,000  Level Salt Lake Center
Mon 02:19:17 PM 39.7833 -110.9883 75° East 480 552 41,000  Level Salt Lake Center
Mon 02:20:19 PM 39.8156 -110.8269 75° East 482 555 41,000  Level Salt Lake Center
Mon 02:21:21 PM 39.8539 -110.6392 75° East 480 552 41,000  Level Salt Lake Center
Mon 02:22:23 PM 39.8867 -110.4767 75° East 483 556 41,000  Level Salt Lake Center
Mon 02:23:25 PM 39.9231 -110.2883 76° East 482 555 41,000  Level Salt Lake Center
Mon 02:24:27 PM 39.9533 -110.1275 76° East 479 551 41,000  Level Salt Lake Center
Mon 02:25:29 PM 39.9908 -109.9369 76° East 483 556 41,000  Level Salt Lake Center
Mon 02:26:31 PM 40.0217 -109.7731 76° East 485 558 41,000  Level Salt Lake Center
Mon 02:27:33 PM 40.0583 -109.5806 76° East 489 563 41,000  Level Salt Lake Center
Mon 02:28:35 PM 40.0892 -109.4156 76° East 489 563 41,000  Level Salt Lake Center
Mon 02:29:37 PM 40.1256 -109.2214 76° East 491 565 41,000  Level Salt Lake Center
Mon 02:30:39 PM 40.1564 -109.0561 76° East 488 562 41,000  Level Salt Lake Center
Mon 02:31:42 PM 40.1864 -108.8900 77° East 488 562 41,000  Level Salt Lake Center
Mon 02:32:44 PM 40.2217 -108.6947 77° East 492 566 41,000  Level Salt Lake Center
Mon 02:33:46 PM 40.2514 -108.5278 77° East 491 565 41,000  Level Salt Lake Center
Mon 02:34:48 PM 40.2867 -108.3331 77° East 491 565 41,000  Level Salt Lake Center
Mon 02:35:50 PM 40.3175 -108.1511 77° East 494 568 41,000  Level Salt Lake Center
Mon 02:36:52 PM 40.3475 -107.9833 77° East 495 570 41,000  Level Salt Lake Center
Mon 02:37:54 PM 40.3814 -107.7847 77° East 501 577 41,000  Level Salt Lake Center
Mon 02:39:08 PM 40.4178 -107.5703 77° East 495 570 41,000  Level Denver Center
Mon 02:40:10 PM 40.4467 -107.3997 77° East 498 573 41,000  Level Denver Center
Mon 02:41:12 PM 40.4789 -107.2022 78° East 497 572 41,000  Level Denver Center
Mon 02:42:15 PM 40.5044 -107.0364 78° East 496 571 41,000  Level Denver Center
Mon 02:43:17 PM 40.5292 -106.8572 80° East 496 571 41,000  Level Denver Center
Mon 02:44:19 PM 40.5539 -106.6775 80° East 497 572 41,000  Level Denver Center
Mon 02:45:21 PM 40.5825 -106.4636 80° East 494 568 41,000  Level Denver Center
Mon 02:46:23 PM 40.6061 -106.2922 80° East 496 571 41,000  Level Denver Center
Mon 02:47:25 PM 40.6292 -106.1192 80° East 496 571 41,000  Level Denver Center
Mon 02:48:27 PM 40.6522 -105.9383 80° East 500 575 41,000  Level Denver Center
Mon 02:49:29 PM 40.6789 -105.7231 81° East 496 571 41,000  Level Denver Center
Mon 02:50:31 PM 40.7025 -105.5406 80° East 503 579 41,000  Level Denver Center
Mon 02:51:33 PM 40.7253 -105.3606 80° East 498 573 41,000  Level Denver Center
Mon 02:52:35 PM 40.7467 -105.1800 81° East 500 575 41,000  Level Denver Center
Mon 02:54:39 PM 40.7903 -104.8169 81° East 500 575 41,000  Level Denver Center
Mon 02:55:41 PM 40.8122 -104.6403 81° East 489 563 41,000  Level Denver Center
Mon 02:56:43 PM 40.8375 -104.4236 81° East 496 571 41,000  Level Denver Center
Mon 02:57:45 PM 40.8583 -104.2425 81° East 498 573 41,000  Level Denver Center
Mon 02:58:47 PM 40.8783 -104.0622 82° East 497 572 41,000  Level Denver Center
Mon 02:59:50 PM 40.8981 -103.8825 82° East 496 571 41,000  Level Denver Center
Mon 03:00:52 PM 40.9181 -103.7033 82° East 494 568 41,000  Level Denver Center
Mon 03:01:54 PM 40.9375 -103.5228 82° East 496 571 41,000  Level Denver Center
Mon 03:02:56 PM 40.9597 -103.3064 82° East 495 570 41,000  Level Denver Center
Mon 03:03:58 PM 40.9794 -103.1267 82° East 493 567 41,000  Level Denver Center
Mon 03:05:00 PM 40.9975 -102.9436 82° East 493 567 41,000  Level Denver Center
Mon 03:06:02 PM 41.0153 -102.7714 82° East 494 568 41,000  Level Denver Center
Mon 03:07:04 PM 41.0356 -102.5700 82° East 493 567 41,000  Level Denver Center
Mon 03:08:06 PM 41.0525 -102.3967 83° East 496 571 41,000  Level Denver Center
Mon 03:09:08 PM 41.0719 -102.1939 83° East 495 570 41,000  Level Denver Center
Mon 03:10:10 PM 41.0889 -102.0206 83° East 495 570 41,000  Level Denver Center
Mon 03:11:12 PM 41.1078 -101.8178 83° East 497 572 41,000  Level Denver Center
Mon 03:12:27 PM 41.1267 -101.6142 83° East 499 574 41,000  Level Denver Center
Mon 03:13:29 PM 41.1453 -101.4117 83° East 496 571 41,000  Level Denver Center
Mon 03:14:31 PM 41.1608 -101.2364 83° East 497 572 41,000  Level Denver Center
Mon 03:15:33 PM 41.1786 -101.0311 83° East 499 574 41,000  Level Denver Center
Mon 03:16:35 PM 41.1944 -100.8553 83° East 498 573 41,000  Level Denver Center
Mon 03:17:37 PM 41.2119 -100.6489 84° East 500 575 41,000  Level Denver Center
Mon 03:18:39 PM 41.2267 -100.4731 84° East 497 572 41,000  Level Denver Center
Mon 03:19:41 PM 41.2403 -100.2969 84° East 498 573 41,000  Level Denver Center
Mon 03:20:43 PM 41.2564 -100.0922 84° East 498 573 41,000  Level Denver Center
Mon 03:21:45 PM 41.2706 -99.9158 84° East 501 577 41,000  Level Denver Center
Mon 03:22:47 PM 41.2856 -99.7092 84° East 502 578 41,000  Level Denver Center
Mon 03:23:49 PM 41.2983 -99.5328 84° East 501 577 41,000  Level Denver Center
Mon 03:24:51 PM 41.3122 -99.3369 85° East 500 575 41,000  Level Denver Center
Mon 03:25:53 PM 41.3247 -99.1522 85° East 498 573 41,000  Level Denver Center
Mon 03:26:55 PM 41.3383 -98.9653 84° East 500 575 41,000  Level Denver Center
Mon 03:27:35 PM 41.3442 -98.8367 87° East 502 578 41,000  Level Minneapolis Center
Mon 03:28:37 PM 41.3564 -98.6517 85° East 502 578 41,000  Level Minneapolis Center
Mon 03:29:39 PM 41.3714 -98.4369 85° East 504 580 41,000  Level Minneapolis Center
Mon 03:30:41 PM 41.3814 -98.2503 86° East 505 581 41,000  Level Minneapolis Center
Mon 03:31:43 PM 41.3861 -98.0567 88° East 503 579 41,000  Level Minneapolis Center
Mon 03:32:45 PM 41.3917 -97.8719 88° East 501 577 41,000  Level Minneapolis Center
Mon 03:33:47 PM 41.3972 -97.6861 88° East 503 579 41,000  Level Minneapolis Center
Mon 03:34:49 PM 41.4019 -97.4994 88° East 504 580 41,000  Level Minneapolis Center
Mon 03:35:51 PM 41.4067 -97.3144 88° East 502 578 41,000  Level Minneapolis Center
Mon 03:36:53 PM 41.4106 -97.1272 88° East 505 581 41,000  Level Minneapolis Center
Mon 03:37:55 PM 41.4150 -96.9403 88° East 506 582 41,000  Level Minneapolis Center
Mon 03:38:57 PM 41.4189 -96.7522 88° East 508 585 41,000  Level Minneapolis Center
Mon 03:39:59 PM 41.4233 -96.5267 88° East 508 585 41,000  Level Minneapolis Center
Mon 03:42:03 PM 41.4286 -96.1522 89° East 514 592 41,000  Level Minneapolis Center
Mon 03:43:06 PM 41.4308 -95.9631 89° East 513 590 41,000  Level Minneapolis Center
Mon 03:44:07 PM 41.4344 -95.7728 88° East 514 592 41,000  Level Minneapolis Center
Mon 03:45:10 PM 41.4350 -95.5597 90° East 516 594 41,000  Level Minneapolis Center
Mon 03:46:24 PM 41.4361 -95.3700 89° East 512 589 41,000  Level Minneapolis Center
Mon 03:47:26 PM 41.4386 -95.1039 89° East 514 592 41,000  Level Minneapolis Center
Mon 03:48:28 PM 41.4397 -94.9144 89° East 512 589 41,000  Level Minneapolis Center
Mon 03:49:30 PM 41.4394 -94.7247 90° East 512 589 41,000  Level Minneapolis Center
Mon 03:50:32 PM 41.4403 -94.5361 90° East 510 587 41,000  Level Minneapolis Center
Mon 03:51:34 PM 41.4408 -94.3458 90° East 512 589 41,000  Level Minneapolis Center
Mon 03:52:37 PM 41.4386 -94.1564 91° East 512 589 41,000  Level Minneapolis Center
Mon 03:53:39 PM 41.4367 -93.9667 91° East 513 590 41,000  Level Minneapolis Center
Mon 03:54:41 PM 41.4364 -93.7381 90° East 515 593 41,000  Level Minneapolis Center
Mon 03:55:43 PM 41.4406 -93.5492 88° East 515 593 41,000  Level Minneapolis Center
Mon 03:56:45 PM 41.4517 -93.3589 85° East 517 595 41,000  Level Minneapolis Center
Mon 03:57:47 PM 41.4606 -93.1683 86° East 518 596 41,000  Level Minneapolis Center
Mon 03:58:49 PM 41.4681 -92.9800 87° East 515 593 41,000  Level Minneapolis Center
Mon 03:59:51 PM 41.4783 -92.7544 86° East 512 589 41,000  Level Minneapolis Center
Mon 04:00:45 PM 41.4783 -92.5992 90° East 514 592 41,000  Level Chicago Center
Mon 04:01:47 PM 41.4631 -92.4089 96° East 517 595 41,000  Level Chicago Center
Mon 04:02:49 PM 41.4458 -92.2133 97° East 523 602 41,000  Level Chicago Center
Mon 04:03:51 PM 41.4261 -91.9886 97° East 520 598 41,000  Level Chicago Center
Mon 04:04:53 PM 41.4083 -91.7994 97° East 521 600 41,000  Level Chicago Center
Mon 04:05:56 PM 41.3900 -91.6100 97° East 522 601 41,000  Level Chicago Center
Mon 04:06:58 PM 41.3719 -91.4228 97° East 519 597 41,000  Level Chicago Center
Mon 04:08:00 PM 41.3519 -91.2206 97° East 522 601 41,000  Level Chicago Center
Mon 04:09:02 PM 41.3325 -91.0300 98° East 519 597 41,000  Level Chicago Center
Mon 04:10:04 PM 41.3089 -90.8006 98° East 522 601 41,000  Level Chicago Center
Mon 04:11:06 PM 41.2892 -90.6094 98° East 521 600 41,000  Level Chicago Center
Mon 04:12:08 PM 41.2686 -90.4194 98° East 518 596 41,000  Level Chicago Center
Mon 04:13:10 PM 41.2486 -90.2256 98° East 526 605 41,000  Level Chicago Center
Mon 04:14:12 PM 41.2269 -90.0356 99° East 521 600 41,000  Level Chicago Center
Mon 04:15:14 PM 41.2078 -89.8436 97° East 522 601 41,000  Level Chicago Center
Mon 04:16:16 PM 41.1856 -89.6492 99° East 527 606 41,000  Level Chicago Center
Mon 04:17:19 PM 41.1628 -89.4564 99° East 526 605 41,000  Level Chicago Center
Mon 04:18:21 PM 41.1369 -89.2306 99° East 514 592 41,000  Level Chicago Center
Mon 04:19:23 PM 41.1144 -89.0469 99° East 521 600 41,000  Level Chicago Center
Mon 04:20:25 PM 41.0906 -88.8567 99° East 525 604 41,000  Level Chicago Center
Mon 04:21:27 PM 41.0672 -88.6686 99° East 525 604 41,000  Level Chicago Center
Mon 04:22:29 PM 41.0400 -88.4431 99° East 524 603 41,000  Level Chicago Center
Mon 04:23:31 PM 41.0161 -88.2572 100° East 521 600 41,000  Level Chicago Center
Mon 04:24:33 PM 40.9933 -88.0731 99° East 517 595 41,000  Level Chicago Center
Mon 04:25:35 PM 40.9697 -87.8894 100° East 515 593 41,000  Level Chicago Center
Mon 04:26:37 PM 40.9419 -87.6708 99° East 509 586 41,000  Level Chicago Center
Mon 04:27:40 PM 40.9181 -87.4864 100° East 514 592 41,000  Level Chicago Center
Mon 04:28:42 PM 40.8917 -87.3017 101° East 515 593 41,000  Level Chicago Center
Mon 04:29:44 PM 40.8664 -87.1161 100° East 517 595 41,000  Level Chicago Center
Mon 04:30:46 PM 40.8406 -86.9289 100° East 520 598 41,000  Level Chicago Center
Mon 04:31:48 PM 40.8144 -86.7386 100° East 519 597 41,000  Level Chicago Center
Mon 04:32:50 PM 40.7828 -86.5131 100° East 521 600 41,000  Level Chicago Center
Mon 04:33:52 PM 40.7553 -86.3269 101° East 521 600 41,000  Level Chicago Center
Mon 04:34:54 PM 40.7286 -86.1406 101° East 521 600 41,000  Level Chicago Center
Mon 04:35:56 PM 40.7008 -85.9544 101° East 521 600 41,000  Level Chicago Center
Mon 04:36:58 PM 40.6714 -85.7528 101° East 520 598 41,000  Level Chicago Center
Mon 04:38:00 PM 40.6428 -85.5642 101° East 523 602 41,000  Level Chicago Center
Mon 04:39:03 PM 40.6147 -85.3756 101° East 525 604 41,000  Level Chicago Center
Mon 04:40:05 PM 40.5858 -85.1869 101° East 526 605 41,000  Level Chicago Center
Mon 04:40:51 PM 40.5594 -85.0336 103° East 527 606 41,000  Level Indianapolis Center
Mon 04:41:53 PM 40.5244 -84.8089 102° East 524 603 41,000  Level Indianapolis Center
Mon 04:42:55 PM 40.4936 -84.6214 102° East 526 605 41,000  Level Indianapolis Center
Mon 04:43:57 PM 40.4667 -84.4367 101° East 517 595 41,000  Level Indianapolis Center
Mon 04:44:59 PM 40.4367 -84.2503 102° East 521 600 41,000  Level Indianapolis Center
Mon 04:46:01 PM 40.4056 -84.0636 102° East 524 603 41,000  Level Indianapolis Center
Mon 04:47:03 PM 40.3747 -83.8789 102° East 521 600 41,000  Level Indianapolis Center
Mon 04:48:05 PM 40.3394 -83.6756 103° East 526 605 41,000  Level Indianapolis Center
Mon 04:49:07 PM 40.3097 -83.4897 102° East 521 600 41,000  Level Indianapolis Center
Mon 04:50:09 PM 40.2767 -83.3031 103° East 522 601 41,000  Level Indianapolis Center
Mon 04:51:11 PM 40.2397 -83.0850 102° East 521 600 41,000  Level Indianapolis Center
Mon 04:52:13 PM 40.2061 -82.8981 103° East 523 602 41,000  Level Indianapolis Center
Mon 04:53:15 PM 40.1736 -82.7119 103° East 523 602 41,000  Level Indianapolis Center
Mon 04:54:17 PM 40.1392 -82.5267 104° East 523 602 41,000  Level Indianapolis Center
Mon 04:55:19 PM 40.0997 -82.3403 105° East 530 610 41,000  Level Indianapolis Center
Mon 04:56:21 PM 40.0614 -82.1542 105° East 529 609 41,000  Level Indianapolis Center
Mon 04:57:23 PM 40.0153 -81.9358 105° East 532 612 41,000  Level Indianapolis Center
Mon 04:58:25 PM 39.9761 -81.7511 105° East 529 609 41,000  Level Indianapolis Center
Mon 04:59:27 PM 39.9364 -81.5667 106° East 529 609 41,000 -145 Level Indianapolis Center
Mon 05:00:29 PM 39.8964 -81.3800 106° East 531 611 40,700 -634 Descending Indianapolis Center
Mon 05:01:30 PM 39.8572 -81.1983 106° East 524 603 39,700 -1,073 Descending Indianapolis Center
Mon 05:02:32 PM 39.8169 -81.0158 106° East 523 602 38,500 -1,161 Descending Indianapolis Center
Mon 05:03:34 PM 39.7753 -80.8294 106° East 532 612 37,300 -1,161 Descending Indianapolis Center
Mon 05:04:36 PM 39.7339 -80.6453 106° East 531 611 36,100 -1,113 Descending Indianapolis Center
Mon 05:05:38 PM 39.6836 -80.4197 106° East 539 620 35,000 -532 Descending Indianapolis Center
Mon 05:06:40 PM 39.6414 -80.2289 106° East 547 629 35,000  Level Indianapolis Center
Mon 05:07:15 PM 39.6181 -80.1203 106° East 539 620 35,000 -1,453 Level Washington Center
Mon 05:08:15 PM 39.5750 -79.9317 106° East 572 658 32,700 -2,479 Descending Washington Center
Mon 05:09:16 PM 39.5378 -79.7492 105° East 550 633 30,000 -2,700 Descending Washington Center
Mon 05:10:15 PM 39.5064 -79.5697 103° East 525 604 27,300 -1,513 Descending Washington Center
Mon 05:11:15 PM 39.4767 -79.3933 102° East 509 586 27,000 -900 Descending Washington Center
Mon 05:12:15 PM 39.4403 -79.2167 105° East 509 586 25,500 -1,820 Descending Washington Center
Mon 05:13:17 PM 39.4117 -79.0569 103° East 483 556 23,300 -2,164 Descending Washington Center
Mon 05:14:17 PM 39.3850 -78.8997 102° East 467 537 21,100 -2,237 Descending Washington Center
Mon 05:15:15 PM 39.3575 -78.7561 104° East 434 499 18,900 -2,218 Descending Washington Center
Mon 05:16:16 PM 39.3319 -78.6156 103° East 415 478 16,700 -1,983 Descending Washington Center
Mon 05:17:16 PM 39.3081 -78.4831 103° East 401 461 14,900 -1,785 Descending Washington Center
Mon 05:18:17 PM 39.2778 -78.3558 107° East 373 429 13,100 -1,785 Descending Washington Center
Mon 05:19:17 PM 39.2278 -78.2575 123° Southeast 346 398 11,300 -1,678 Descending Washington Center
Mon 05:20:15 PM 39.1778 -78.1647 125° Southeast 329 379 9,800 -1,513 Descending Washington Center
Mon 05:21:16 PM 39.1317 -78.0747 123° Southeast 310 357 8,300 -1,339 Descending Washington Center
Mon 05:22:16 PM 39.0894 -77.9983 125° Southeast 305 351 7,100 -1,140 Descending Washington Center
Mon 05:23:17 PM 39.0492 -77.9222 124° Southeast 292 336 6,000 -555 Descending Washington Center
Mon 05:24:15 PM 39.0031 -77.8300 123° Southeast 285 328 6,000  Level Washington Center
Mon 05:25:16 PM 38.9631 -77.7300 117° Southeast 285 328 6,000  Level Washington Center
Mon 05:26:17 PM 38.9522 -77.6469 99° East 265 305 6,000  Level Washington Center
Mon 05:26:50 PM 38.9167 -77.6167 146° Southeast 209 241 6,000 -129 Level Potomac TRACON
Mon 05:27:50 PM 38.8667 -77.5833 153° Southeast 193 222 5,800 -893 Descending Potomac TRACON
Mon 05:28:51 PM 38.8167 -77.5667 165° South 201 231 4,200 -1,500 Descending Potomac TRACON
Mon 05:29:50 PM 38.8167 -77.5000 90° East 197 227 2,800 -1,200 Descending Potomac TRACON
Mon 05:30:51 PM 38.8500 -77.4500 49° Northeast 182 209 1,800 -843 Descending Potomac TRACON
Mon 05:31:51 PM 38.8833 -77.4333 21° North 133 153 1,100 -700 Descending Potomac TRACON
Mon 05:33:00 PM 38.9333 -77.4500 345° North  Level FlightAware Approximate
Mon 05:40:00 PM 38.9474 -77.4599 345° North  Level Estimated
Mon 05:41:00 PM 38.9474 -77.4599 345° North  Level Estimated
Mon 05:42:00 PM 38.9474 -77.4599 345° North  Level Estimated

Login

Don't have an account? Register now (free) for customized features, flight alerts, and more!